Wetterdaten: Woche 10.03.14 - 16.03.14 (KW11)
Datum Zeit Temp. Aussen +5cm Feuchte Auss Luftdruck Regen Sonnenschein Regendauer UV Solar Windben
10.03.2014 00:00 10,0 C 7,2 C 62 % 1025,9 hPa 0,0 l/m 0,00 h 0,00 h 0,0 UV-I 0 W/m 13,1 km/h (3 Bft)
10.03.2014 01:00 9,5 C 7,0 C 63 % 1025,7 hPa 0,0 l/m 0,00 h 0,00 h 0,0 UV-I 0 W/m 13,9 km/h (3 Bft)
10.03.2014 02:00 8,5 C 6,1 C 65 % 1025,4 hPa 0,0 l/m 0,00 h 0,00 h 0,0 UV-I 0 W/m 12,1 km/h (2 Bft)
10.03.2014 03:00 7,3 C 4,6 C 71 % 1025,6 hPa 0,0 l/m 0,00 h 0,00 h 0,0 UV-I 0 W/m 0,6 km/h (0 Bft)
10.03.2014 04:00 4,8 C 2,4 C 80 % 1025,5 hPa 0,0 l/m 0,00 h 0,00 h 0,0 UV-I 0 W/m 0,0 km/h (0 Bft)
10.03.2014 05:00 3,3 C 1,2 C 85 % 1025,4 hPa 0,0 l/m 0,00 h 0,00 h 0,0 UV-I 0 W/m 0,0 km/h (0 Bft)
10.03.2014 06:00 2,8 C 0,8 C 87 % 1025,1 hPa 0,0 l/m 0,00 h 0,00 h 0,0 UV-I 5 W/m 0,0 km/h (0 Bft)
10.03.2014 07:00 2,4 C 0,7 C 89 % 1025,1 hPa 0,0 l/m 0,00 h 0,00 h 0,0 UV-I 28 W/m 0,0 km/h (0 Bft)
10.03.2014 08:00 5,4 C 2,7 C 82 % 1025,5 hPa 0,0 l/m 0,93 h 0,00 h 0,0 UV-I 154 W/m 0,3 km/h (0 Bft)
10.03.2014 09:00 9,7 C 7,1 C 68 % 1025,2 hPa 0,0 l/m 1,00 h 0,00 h 0,0 UV-I 303 W/m 11,9 km/h (2 Bft)
10.03.2014 10:00 13,0 C 10,6 C 61 % 1024,7 hPa 0,0 l/m 1,00 h 0,00 h 0,7 UV-I 423 W/m 10,2 km/h (2 Bft)
10.03.2014 11:00 14,9 C 12,7 C 56 % 1024,4 hPa 0,0 l/m 1,00 h 0,00 h 1,0 UV-I 506 W/m 11,1 km/h (2 Bft)
10.03.2014 12:00 16,0 C 13,8 C 52 % 1024,4 hPa 0,0 l/m 1,00 h 0,00 h 0,8 UV-I 545 W/m 2,2 km/h (1 Bft)
10.03.2014 13:00 17,2 C 15,3 C 49 % 1023,7 hPa 0,0 l/m 1,00 h 0,00 h 1,3 UV-I 527 W/m 4,5 km/h (1 Bft)
10.03.2014 14:00 18,0 C 16,3 C 47 % 1023,4 hPa 0,0 l/m 1,00 h 0,00 h 0,9 UV-I 466 W/m 10,3 km/h (2 Bft)
10.03.2014 15:00 18,8 C 17,2 C 45 % 1023,3 hPa 0,0 l/m 1,00 h 0,00 h 0,6 UV-I 367 W/m 14,7 km/h (3 Bft)
10.03.2014 16:00 18,5 C 16,7 C 46 % 1023,3 hPa 0,0 l/m 1,00 h 0,00 h 0,0 UV-I 234 W/m 15,5 km/h (3 Bft)
10.03.2014 17:00 17,5 C 15,2 C 51 % 1023,4 hPa 0,0 l/m 0,57 h 0,00 h 0,0 UV-I 87 W/m 7,6 km/h (2 Bft)
10.03.2014 18:00 14,0 C 10,4 C 63 % 1023,7 hPa 0,0 l/m 0,00 h 0,00 h 0,0 UV-I 11 W/m 0,0 km/h (0 Bft)
10.03.2014 19:00 11,4 C 7,8 C 70 % 1024,5 hPa 0,0 l/m 0,00 h 0,00 h 0,0 UV-I 0 W/m 0,0 km/h (0 Bft)
10.03.2014 20:00 9,7 C 6,3 C 75 % 1025,0 hPa 0,0 l/m 0,00 h 0,00 h 0,0 UV-I 0 W/m 0,0 km/h (0 Bft)
10.03.2014 21:00 10,0 C 6,6 C 77 % 1025,2 hPa 0,0 l/m 0,00 h 0,00 h 0,0 UV-I 0 W/m 2,9 km/h (1 Bft)
10.03.2014 22:00 10,4 C 8,6 C 79 % 1025,7 hPa 0,0 l/m 0,00 h 0,00 h 0,0 UV-I 0 W/m 8,1 km/h (2 Bft)
10.03.2014 23:00 9,8 C 8,2 C 82 % 1026,1 hPa 0,0 l/m 0,00 h 0,00 h 0,0 UV-I 0 W/m 9,9 km/h (2 Bft)
11.03.2014 00:00 8,8 C 7,3 C 86 % 1026,7 hPa 0,0 l/m 0,00 h 0,00 h 0,0 UV-I 0 W/m 6,3 km/h (2 Bft)
11.03.2014 01:00 7,7 C 6,4 C 90 % 1027,3 hPa 0,0 l/m 0,00 h 0,00 h 0,0 UV-I 0 W/m 7,5 km/h (2 Bft)
11.03.2014 02:00 6,7 C 5,3 C 92 % 1027,7 hPa 0,0 l/m 0,00 h 0,00 h 0,0 UV-I 0 W/m 6,9 km/h (2 Bft)
11.03.2014 03:00 5,8 C 4,7 C 94 % 1027,9 hPa 0,0 l/m 0,00 h 0,00 h 0,0 UV-I 0 W/m 7,0 km/h (2 Bft)
11.03.2014 04:00 5,9 C 5,0 C 96 % 1028,2 hPa 0,0 l/m 0,00 h 0,00 h 0,0 UV-I 0 W/m 10,8 km/h (2 Bft)
11.03.2014 05:00 6,2 C 5,2 C 96 % 1028,5 hPa 0,0 l/m 0,00 h 0,00 h 0,0 UV-I 0 W/m 10,0 km/h (2 Bft)
11.03.2014 06:00 6,4 C 5,6 C 95 % 1029,2 hPa 0,0 l/m 0,00 h 0,00 h 0,0 UV-I 0 W/m 5,7 km/h (1 Bft)
11.03.2014 07:00 6,7 C 5,7 C 94 % 1029,8 hPa 0,0 l/m 0,00 h 0,00 h 0,0 UV-I 18 W/m 8,0 km/h (2 Bft)
11.03.2014 08:00 7,1 C 6,5 C 93 % 1030,4 hPa 0,0 l/m 0,00 h 0,00 h 0,0 UV-I 90 W/m 11,2 km/h (2 Bft)
11.03.2014 09:00 7,8 C 7,3 C 91 % 1030,9 hPa 0,0 l/m 0,33 h 0,00 h 0,0 UV-I 190 W/m 12,5 km/h (3 Bft)
11.03.2014 10:00 9,5 C 9,2 C 86 % 1031,1 hPa 0,0 l/m 1,00 h 0,00 h 0,7 UV-I 362 W/m 10,8 km/h (2 Bft)
11.03.2014 11:00 10,8 C 10,4 C 80 % 1031,2 hPa 0,0 l/m 1,00 h 0,00 h 1,0 UV-I 451 W/m 11,8 km/h (2 Bft)
11.03.2014 12:00 12,1 C 11,3 C 75 % 1031,0 hPa 0,0 l/m 1,00 h 0,00 h 1,0 UV-I 503 W/m 13,9 km/h (3 Bft)
11.03.2014 13:00 14,0 C 12,8 C 68 % 1030,4 hPa 0,0 l/m 0,97 h 0,00 h 1,3 UV-I 511 W/m 14,0 km/h (3 Bft)
11.03.2014 14:00 15,4 C 14,0 C 62 % 1029,8 hPa 0,0 l/m 1,00 h 0,00 h 1,0 UV-I 457 W/m 14,7 km/h (3 Bft)
11.03.2014 15:00 15,8 C 14,4 C 61 % 1029,5 hPa 0,0 l/m 1,00 h 0,00 h 0,6 UV-I 361 W/m 16,3 km/h (3 Bft)
11.03.2014 16:00 15,3 C 13,7 C 63 % 1029,6 hPa 0,0 l/m 1,00 h 0,00 h 0,0 UV-I 224 W/m 14,7 km/h (3 Bft)
11.03.2014 17:00 14,4 C 12,6 C 66 % 1029,7 hPa 0,0 l/m 0,47 h 0,00 h 0,0 UV-I 83 W/m 11,8 km/h (2 Bft)
11.03.2014 18:00 12,8 C 10,5 C 71 % 1030,3 hPa 0,0 l/m 0,00 h 0,00 h 0,0 UV-I 13 W/m 3,9 km/h (1 Bft)
11.03.2014 19:00 11,5 C 9,2 C 74 % 1030,8 hPa 0,0 l/m 0,00 h 0,00 h 0,0 UV-I 0 W/m 2,4 km/h (1 Bft)
11.03.2014 20:00 10,2 C 8,1 C 79 % 1031,4 hPa 0,0 l/m 0,00 h 0,00 h 0,0 UV-I 0 W/m 3,9 km/h (1 Bft)
11.03.2014 21:00 8,9 C 7,1 C 84 % 1031,9 hPa 0,0 l/m 0,00 h 0,00 h 0,0 UV-I 0 W/m 2,3 km/h (1 Bft)
11.03.2014 22:00 7,9 C 6,1 C 88 % 1031,9 hPa 0,0 l/m 0,00 h 0,00 h 0,0 UV-I 0 W/m 2,0 km/h (1 Bft)
11.03.2014 23:00 7,2 C 5,4 C 90 % 1032,0 hPa 0,0 l/m 0,00 h 0,00 h 0,0 UV-I 0 W/m 0,8 km/h (0 Bft)
12.03.2014 00:00 6,3 C 4,2 C 91 % 1031,8 hPa 0,0 l/m 0,00 h 0,00 h 0,0 UV-I 0 W/m 0,0 km/h (0 Bft)
12.03.2014 01:00 5,2 C 3,0 C 93 % 1031,5 hPa 0,0 l/m 0,00 h 0,00 h 0,0 UV-I 0 W/m 0,0 km/h (0 Bft)
12.03.2014 02:00 4,7 C 2,8 C 94 % 1031,5 hPa 0,0 l/m 0,00 h 0,00 h 0,0 UV-I 0 W/m 0,1 km/h (0 Bft)
12.03.2014 03:00 4,7 C 2,8 C 94 % 1031,4 hPa 0,0 l/m 0,00 h 0,00 h 0,0 UV-I 0 W/m 0,3 km/h (0 Bft)
12.03.2014 04:00 3,7 C 1,8 C 94 % 1031,3 hPa 0,0 l/m 0,00 h 0,00 h 0,0 UV-I 0 W/m 0,0 km/h (0 Bft)
12.03.2014 05:00 3,5 C 1,8 C 95 % 1031,3 hPa 0,0 l/m 0,00 h 0,00 h 0,0 UV-I 0 W/m 0,0 km/h (0 Bft)
12.03.2014 06:00 3,6 C 1,9 C 96 % 1031,6 hPa 0,0 l/m 0,00 h 0,00 h 0,0 UV-I 5 W/m 0,0 km/h (0 Bft)
12.03.2014 07:00 3,5 C 1,9 C 96 % 1032,0 hPa 0,0 l/m 0,00 h 0,00 h 0,0 UV-I 33 W/m 0,0 km/h (0 Bft)
12.03.2014 08:00 4,8 C 3,4 C 96 % 1032,2 hPa 0,0 l/m 0,27 h 0,00 h 0,0 UV-I 134 W/m 0,4 km/h (0 Bft)
12.03.2014 09:00 8,1 C 6,2 C 87 % 1032,4 hPa 0,0 l/m 0,40 h 0,00 h 0,0 UV-I 284 W/m 2,6 km/h (1 Bft)
12.03.2014 10:00 11,5 C 9,6 C 75 % 1032,4 hPa 0,0 l/m 0,57 h 0,00 h 0,7 UV-I 416 W/m 7,3 km/h (2 Bft)
12.03.2014 11:00 13,4 C 11,6 C 68 % 1032,2 hPa 0,0 l/m 1,00 h 0,00 h 1,0 UV-I 487 W/m 6,7 km/h (2 Bft)
12.03.2014 12:00 15,4 C 13,4 C 60 % 1031,6 hPa 0,0 l/m 1,00 h 0,00 h 0,9 UV-I 530 W/m 5,4 km/h (1 Bft)
12.03.2014 13:00 17,1 C 14,7 C 51 % 1030,8 hPa 0,0 l/m 1,00 h 0,00 h 1,4 UV-I 529 W/m 4,7 km/h (1 Bft)
12.03.2014 14:00 18,2 C 15,7 C 47 % 1030,1 hPa 0,0 l/m 1,00 h 0,00 h 1,1 UV-I 474 W/m 5,8 km/h (1 Bft)
12.03.2014 15:00 18,6 C 16,1 C 45 % 1029,6 hPa 0,0 l/m 1,00 h 0,00 h 0,6 UV-I 378 W/m 4,8 km/h (1 Bft)
12.03.2014 16:00 18,2 C 15,1 C 46 % 1029,3 hPa 0,0 l/m 1,00 h 0,00 h 0,0 UV-I 241 W/m 1,1 km/h (1 Bft)
12.03.2014 17:00 16,9 C 13,3 C 50 % 1028,9 hPa 0,0 l/m 0,53 h 0,00 h 0,0 UV-I 91 W/m 1,2 km/h (1 Bft)
12.03.2014 18:00 14,6 C 11,5 C 58 % 1029,0 hPa 0,0 l/m 0,00 h 0,00 h 0,0 UV-I 14 W/m 0,5 km/h (0 Bft)
12.03.2014 19:00 11,0 C 7,8 C 71 % 1029,2 hPa 0,0 l/m 0,00 h 0,00 h 0,0 UV-I 0 W/m 0,0 km/h (0 Bft)
12.03.2014 20:00 8,8 C 6,1 C 78 % 1029,2 hPa 0,0 l/m 0,00 h 0,00 h 0,0 UV-I 0 W/m 0,0 km/h (0 Bft)
12.03.2014 21:00 7,4 C 4,7 C 82 % 1029,0 hPa 0,0 l/m 0,00 h 0,00 h 0,0 UV-I 0 W/m 0,0 km/h (0 Bft)
12.03.2014 22:00 6,4 C 3,9 C 85 % 1029,0 hPa 0,0 l/m 0,00 h 0,00 h 0,0 UV-I 0 W/m 0,0 km/h (0 Bft)
12.03.2014 23:00 5,4 C 3,1 C 88 % 1028,7 hPa 0,0 l/m 0,00 h 0,00 h 0,0 UV-I 0 W/m 0,0 km/h (0 Bft)
13.03.2014 00:00 4,8 C 2,7 C 90 % 1028,5 hPa 0,0 l/m 0,00 h 0,00 h 0,0 UV-I 0 W/m 0,0 km/h (0 Bft)
13.03.2014 01:00 4,2 C 2,1 C 92 % 1028,4 hPa 0,0 l/m 0,00 h 0,00 h 0,0 UV-I 0 W/m 0,0 km/h (0 Bft)
13.03.2014 02:00 4,1 C 1,7 C 92 % 1028,1 hPa 0,0 l/m 0,00 h 0,00 h 0,0 UV-I 0 W/m 0,0 km/h (0 Bft)
13.03.2014 03:00 4,1 C 1,6 C 89 % 1027,8 hPa 0,0 l/m 0,00 h 0,00 h 0,0 UV-I 0 W/m 0,0 km/h (0 Bft)
13.03.2014 04:00 3,4 C 1,3 C 90 % 1027,7 hPa 0,0 l/m 0,00 h 0,00 h 0,0 UV-I 0 W/m 0,0 km/h (0 Bft)
13.03.2014 05:00 2,1 C 0,4 C 93 % 1027,9 hPa 0,0 l/m 0,00 h 0,00 h 0,0 UV-I 0 W/m 0,0 km/h (0 Bft)
13.03.2014 06:00 1,6 C -0,1 C 94 % 1027,9 hPa 0,0 l/m 0,00 h 0,00 h 0,0 UV-I 6 W/m 0,0 km/h (0 Bft)
13.03.2014 07:00 1,9 C 0,3 C 95 % 1028,2 hPa 0,0 l/m 0,00 h 0,00 h 0,0 UV-I 34 W/m 0,0 km/h (0 Bft)
13.03.2014 08:00 4,4 C 2,4 C 92 % 1028,5 hPa 0,0 l/m 0,80 h 0,00 h 0,0 UV-I 155 W/m 0,3 km/h (0 Bft)
13.03.2014 09:00 8,2 C 5,8 C 78 % 1028,6 hPa 0,0 l/m 1,00 h 0,00 h 0,0 UV-I 297 W/m 0,3 km/h (0 Bft)
13.03.2014 10:00 11,3 C 9,5 C 72 % 1028,5 hPa 0,0 l/m 1,00 h 0,00 h 0,7 UV-I 418 W/m 0,3 km/h (0 Bft)
13.03.2014 11:00 13,9 C 12,1 C 67 % 1028,5 hPa 0,0 l/m 1,00 h 0,00 h 1,1 UV-I 501 W/m 0,3 km/h (0 Bft)
13.03.2014 12:00 15,7 C 13,9 C 60 % 1028,4 hPa 0,0 l/m 1,00 h 0,00 h 1,0 UV-I 546 W/m 3,3 km/h (1 Bft)
13.03.2014 13:00 16,8 C 14,9 C 54 % 1027,8 hPa 0,0 l/m 1,00 h 0,00 h 1,4 UV-I 536 W/m 6,7 km/h (2 Bft)
13.03.2014 14:00 17,8 C 16,0 C 47 % 1027,2 hPa 0,0 l/m 1,00 h 0,00 h 1,1 UV-I 486 W/m 8,1 km/h (2 Bft)
13.03.2014 15:00 17,9 C 16,1 C 45 % 1026,8 hPa 0,0 l/m 1,00 h 0,00 h 0,6 UV-I 376 W/m 6,5 km/h (2 Bft)
13.03.2014 16:00 17,7 C 15,7 C 48 % 1026,5 hPa 0,0 l/m 1,00 h 0,00 h 0,0 UV-I 235 W/m 5,5 km/h (1 Bft)
13.03.2014 17:00 16,7 C 14,3 C 49 % 1026,4 hPa 0,0 l/m 0,53 h 0,00 h 0,0 UV-I 92 W/m 2,8 km/h (1 Bft)
13.03.2014 18:00 14,0 C 10,7 C 55 % 1026,7 hPa 0,0 l/m 0,00 h 0,00 h 0,0 UV-I 14 W/m 0,1 km/h (0 Bft)
13.03.2014 19:00 10,5 C 7,3 C 68 % 1027,1 hPa 0,0 l/m 0,00 h 0,00 h 0,0 UV-I 0 W/m 0,0 km/h (0 Bft)
13.03.2014 20:00 8,6 C 5,8 C 75 % 1027,4 hPa 0,0 l/m 0,00 h 0,00 h 0,0 UV-I 0 W/m 0,0 km/h (0 Bft)
13.03.2014 21:00 7,3 C 4,7 C 80 % 1027,7 hPa 0,0 l/m 0,00 h 0,00 h 0,0 UV-I 0 W/m 0,0 km/h (0 Bft)
13.03.2014 22:00 6,5 C 4,0 C 83 % 1028,0 hPa 0,0 l/m 0,00 h 0,00 h 0,0 UV-I 0 W/m 0,0 km/h (0 Bft)
13.03.2014 23:00 6,0 C 3,4 C 87 % 1028,1 hPa 0,0 l/m 0,00 h 0,00 h 0,0 UV-I 0 W/m 0,0 km/h (0 Bft)
14.03.2014 00:00 5,6 C 3,0 C 90 % 1028,0 hPa 0,0 l/m 0,00 h 0,00 h 0,0 UV-I 0 W/m 0,0 km/h (0 Bft)
14.03.2014 01:00 4,9 C 2,5 C 92 % 1028,1 hPa 0,0 l/m 0,00 h 0,00 h 0,0 UV-I 0 W/m 0,0 km/h (0 Bft)
14.03.2014 02:00 4,2 C 2,2 C 94 % 1027,9 hPa 0,0 l/m 0,00 h 0,00 h 0,0 UV-I 0 W/m 0,0 km/h (0 Bft)
14.03.2014 03:00 3,4 C 1,4 C 95 % 1027,6 hPa 0,0 l/m 0,00 h 0,00 h 0,0 UV-I 0 W/m 0,0 km/h (0 Bft)
14.03.2014 04:00 2,8 C 0,8 C 96 % 1027,6 hPa 0,0 l/m 0,00 h 0,00 h 0,0 UV-I 0 W/m 0,0 km/h (0 Bft)
14.03.2014 05:00 2,4 C 0,6 C 96 % 1027,6 hPa 0,0 l/m 0,00 h 0,00 h 0,0 UV-I 0 W/m 0,0 km/h (0 Bft)
14.03.2014 06:00 1,9 C 0,1 C 96 % 1027,5 hPa 0,0 l/m 0,00 h 0,00 h 0,0 UV-I 6 W/m 0,0 km/h (0 Bft)
14.03.2014 07:00 1,8 C 0,3 C 97 % 1027,7 hPa 0,0 l/m 0,00 h 0,00 h 0,0 UV-I 38 W/m 0,0 km/h (0 Bft)
14.03.2014 08:00 3,2 C 2,3 C 97 % 1027,7 hPa 0,0 l/m 0,77 h 0,00 h 0,0 UV-I 158 W/m 0,1 km/h (0 Bft)
14.03.2014 09:00 5,8 C 4,9 C 94 % 1027,7 hPa 0,0 l/m 1,00 h 0,00 h 0,0 UV-I 292 W/m 0,0 km/h (0 Bft)
14.03.2014 10:00 8,6 C 7,7 C 83 % 1027,3 hPa 0,0 l/m 1,00 h 0,00 h 0,7 UV-I 419 W/m 0,4 km/h (0 Bft)
14.03.2014 11:00 11,1 C 10,2 C 76 % 1026,9 hPa 0,0 l/m 0,97 h 0,00 h 1,0 UV-I 495 W/m 0,5 km/h (0 Bft)
14.03.2014 12:00 13,5 C 12,4 C 68 % 1026,3 hPa 0,0 l/m 0,97 h 0,00 h 1,0 UV-I 545 W/m 2,0 km/h (1 Bft)
14.03.2014 13:00 14,9 C 13,7 C 61 % 1025,1 hPa 0,0 l/m 0,97 h 0,00 h 1,3 UV-I 532 W/m 5,9 km/h (2 Bft)
14.03.2014 14:00 15,9 C 14,6 C 60 % 1024,2 hPa 0,0 l/m 0,97 h 0,00 h 0,9 UV-I 468 W/m 8,4 km/h (2 Bft)
14.03.2014 15:00 16,5 C 14,7 C 57 % 1023,4 hPa 0,0 l/m 1,00 h 0,00 h 0,6 UV-I 373 W/m 8,5 km/h (2 Bft)
14.03.2014 16:00 16,0 C 14,0 C 57 % 1022,5 hPa 0,0 l/m 0,97 h 0,00 h 0,0 UV-I 237 W/m 7,6 km/h (2 Bft)
14.03.2014 17:00 14,9 C 12,6 C 60 % 1021,8 hPa 0,0 l/m 0,53 h 0,00 h 0,0 UV-I 92 W/m 2,9 km/h (1 Bft)
14.03.2014 18:00 13,2 C 9,9 C 67 % 1021,9 hPa 0,0 l/m 0,17 h 0,00 h 0,0 UV-I 19 W/m 0,2 km/h (0 Bft)
14.03.2014 19:00 11,2 C 7,8 C 67 % 1022,1 hPa 0,0 l/m 0,00 h 0,00 h 0,0 UV-I 0 W/m 0,1 km/h (0 Bft)
14.03.2014 20:00 9,4 C 6,3 C 71 % 1021,8 hPa 0,0 l/m 0,00 h 0,00 h 0,0 UV-I 0 W/m 0,1 km/h (0 Bft)
14.03.2014 21:00 9,2 C 6,5 C 70 % 1021,1 hPa 0,0 l/m 0,00 h 0,00 h 0,0 UV-I 0 W/m 0,2 km/h (0 Bft)
14.03.2014 22:00 8,4 C 5,8 C 76 % 1020,7 hPa 0,0 l/m 0,00 h 0,00 h 0,0 UV-I 0 W/m 0,8 km/h (0 Bft)
14.03.2014 23:00 8,6 C 6,7 C 78 % 1020,2 hPa 0,0 l/m 0,00 h 0,00 h 0,0 UV-I 0 W/m 4,1 km/h (1 Bft)
15.03.2014 00:00 9,5 C 7,8 C 78 % 1019,9 hPa 0,0 l/m 0,00 h 0,00 h 0,0 UV-I 0 W/m 12,2 km/h (2 Bft)
15.03.2014 01:00 9,2 C 7,4 C 80 % 1019,7 hPa 0,0 l/m 0,00 h 0,00 h 0,0 UV-I 0 W/m 8,9 km/h (2 Bft)
15.03.2014 02:00 8,8 C 7,2 C 82 % 1019,7 hPa 0,0 l/m 0,00 h 0,00 h 0,0 UV-I 0 W/m 12,2 km/h (2 Bft)
15.03.2014 03:00 8,6 C 7,2 C 86 % 1019,2 hPa 0,0 l/m 0,00 h 0,00 h 0,0 UV-I 0 W/m 13,7 km/h (3 Bft)
15.03.2014 04:00 8,5 C 7,2 C 88 % 1019,0 hPa 0,0 l/m 0,00 h 0,00 h 0,0 UV-I 0 W/m 12,6 km/h (3 Bft)
15.03.2014 05:00 8,6 C 7,2 C 88 % 1018,9 hPa 0,0 l/m 0,00 h 0,00 h 0,0 UV-I 0 W/m 16,9 km/h (3 Bft)
15.03.2014 06:00 8,4 C 6,9 C 90 % 1019,0 hPa 0,0 l/m 0,00 h 0,20 h 0,0 UV-I 0 W/m 14,8 km/h (3 Bft)
15.03.2014 07:00 7,9 C 6,7 C 94 % 1019,4 hPa 0,4 l/m 0,00 h 0,43 h 0,0 UV-I 10 W/m 13,5 km/h (3 Bft)
15.03.2014 08:00 7,7 C 6,4 C 95 % 1019,9 hPa 0,4 l/m 0,00 h 0,40 h 0,0 UV-I 21 W/m 9,8 km/h (2 Bft)
15.03.2014 09:00 7,9 C 6,8 C 95 % 1020,4 hPa 0,0 l/m 0,00 h 0,00 h 0,0 UV-I 64 W/m 8,1 km/h (2 Bft)
15.03.2014 10:00 8,6 C 7,4 C 93 % 1020,9 hPa 0,0 l/m 0,23 h 0,33 h 0,7 UV-I 168 W/m 12,0 km/h (2 Bft)
15.03.2014 11:00 9,6 C 7,9 C 85 % 1021,4 hPa 0,2 l/m 0,27 h 0,17 h 0,9 UV-I 280 W/m 18,4 km/h (3 Bft)
15.03.2014 12:00 10,9 C 9,7 C 70 % 1021,4 hPa 0,0 l/m 0,57 h 0,03 h 1,0 UV-I 422 W/m 21,3 km/h (4 Bft)
15.03.2014 13:00 11,9 C 11,0 C 63 % 1021,2 hPa 0,0 l/m 0,37 h 0,00 h 1,1 UV-I 357 W/m 22,5 km/h (4 Bft)
15.03.2014 14:00 11,3 C 10,7 C 64 % 1021,0 hPa 0,0 l/m 0,07 h 0,00 h 0,5 UV-I 213 W/m 20,3 km/h (4 Bft)
15.03.2014 15:00 11,3 C 10,5 C 67 % 1021,2 hPa 0,0 l/m 0,13 h 0,00 h 0,7 UV-I 186 W/m 17,6 km/h (3 Bft)
15.03.2014 16:00 11,1 C 10,1 C 69 % 1021,2 hPa 0,0 l/m 0,07 h 0,00 h 0,0 UV-I 124 W/m 17,8 km/h (3 Bft)
15.03.2014 17:00 10,7 C 9,3 C 70 % 1021,3 hPa 0,0 l/m 0,07 h 0,00 h 0,0 UV-I 61 W/m 14,2 km/h (3 Bft)
15.03.2014 18:00 10,0 C 8,6 C 72 % 1021,2 hPa 0,0 l/m 0,00 h 0,00 h 0,0 UV-I 13 W/m 6,5 km/h (2 Bft)
15.03.2014 19:00 9,7 C 8,3 C 74 % 1021,3 hPa 0,0 l/m 0,00 h 0,00 h 0,0 UV-I 0 W/m 7,9 km/h (2 Bft)
15.03.2014 20:00 9,5 C 8,1 C 77 % 1021,3 hPa 0,0 l/m 0,00 h 0,00 h 0,0 UV-I 0 W/m 14,4 km/h (3 Bft)
15.03.2014 21:00 9,2 C 7,8 C 79 % 1020,9 hPa 0,0 l/m 0,00 h 0,00 h 0,0 UV-I 0 W/m 13,2 km/h (3 Bft)
15.03.2014 22:00 9,1 C 7,8 C 79 % 1020,0 hPa 0,0 l/m 0,00 h 0,00 h 0,0 UV-I 0 W/m 15,2 km/h (3 Bft)
15.03.2014 23:00 9,5 C 8,2 C 78 % 1019,1 hPa 0,0 l/m 0,00 h 0,00 h 0,0 UV-I 0 W/m 14,6 km/h (3 Bft)
16.03.2014 00:00 9,8 C 8,5 C 78 % 1018,7 hPa 0,0 l/m 0,00 h 0,00 h 0,0 UV-I 0 W/m 16,3 km/h (3 Bft)
16.03.2014 01:00 10,2 C 8,9 C 79 % 1018,7 hPa 0,0 l/m 0,00 h 0,00 h 0,0 UV-I 0 W/m 16,5 km/h (3 Bft)
16.03.2014 02:00 10,4 C 8,9 C 81 % 1018,4 hPa 0,0 l/m 0,00 h 0,00 h 0,0 UV-I 0 W/m 14,4 km/h (3 Bft)
16.03.2014 03:00 10,4 C 8,9 C 82 % 1018,1 hPa 0,0 l/m 0,00 h 0,00 h 0,0 UV-I 0 W/m 13,4 km/h (3 Bft)
16.03.2014 04:00 10,3 C 8,9 C 83 % 1018,0 hPa 0,0 l/m 0,00 h 0,00 h 0,0 UV-I 0 W/m 14,5 km/h (3 Bft)
16.03.2014 05:00 10,0 C 8,8 C 84 % 1018,0 hPa 0,0 l/m 0,00 h 0,00 h 0,0 UV-I 0 W/m 14,6 km/h (3 Bft)
16.03.2014 06:00 9,8 C 8,3 C 85 % 1018,2 hPa 0,0 l/m 0,00 h 0,00 h 0,0 UV-I 0 W/m 14,0 km/h (3 Bft)
16.03.2014 07:00 9,7 C 8,6 C 86 % 1018,5 hPa 0,0 l/m 0,00 h 0,00 h 0,0 UV-I 15 W/m 12,9 km/h (3 Bft)
16.03.2014 08:00 9,8 C 8,9 C 86 % 1018,8 hPa 0,0 l/m 0,00 h 0,00 h 0,0 UV-I 35 W/m 11,3 km/h (2 Bft)
16.03.2014 09:00 9,7 C 8,9 C 87 % 1019,4 hPa 0,0 l/m 0,00 h 0,00 h 0,0 UV-I 51 W/m 15,5 km/h (3 Bft)
16.03.2014 10:00 9,9 C 9,4 C 88 % 1019,4 hPa 0,0 l/m 0,00 h 0,00 h 0,0 UV-I 104 W/m 12,9 km/h (3 Bft)
16.03.2014 11:00 10,9 C 10,8 C 85 % 1019,5 hPa 0,0 l/m 0,00 h 0,00 h 0,8 UV-I 170 W/m 13,4 km/h (3 Bft)
16.03.2014 12:00 11,9 C 11,9 C 82 % 1019,3 hPa 0,0 l/m 0,00 h 0,00 h 0,7 UV-I 208 W/m 16,8 km/h (3 Bft)
16.03.2014 13:00 13,7 C 13,6 C 78 % 1018,7 hPa 0,0 l/m 0,63 h 0,00 h 1,4 UV-I 400 W/m 19,3 km/h (3 Bft)
16.03.2014 14:00 13,7 C 13,0 C 76 % 1018,4 hPa 0,0 l/m 0,00 h 0,00 h 0,5 UV-I 130 W/m 17,2 km/h (3 Bft)
16.03.2014 15:00 13,8 C 12,9 C 76 % 1018,2 hPa 0,0 l/m 0,00 h 0,00 h 0,0 UV-I 109 W/m 13,6 km/h (3 Bft)
16.03.2014 16:00 13,8 C 12,7 C 74 % 1018,5 hPa 0,0 l/m 0,47 h 0,00 h 0,0 UV-I 169 W/m 15,7 km/h (3 Bft)
16.03.2014 17:00 13,4 C 11,9 C 74 % 1018,5 hPa 0,0 l/m 0,73 h 0,00 h 0,0 UV-I 111 W/m 12,8 km/h (3 Bft)
16.03.2014 18:00 12,2 C 10,4 C 74 % 1019,0 hPa 0,0 l/m 0,00 h 0,00 h 0,0 UV-I 16 W/m 12,4 km/h (3 Bft)
16.03.2014 19:00 10,8 C 9,0 C 77 % 1019,6 hPa 0,0 l/m 0,00 h 0,00 h 0,0 UV-I 0 W/m 6,9 km/h (2 Bft)
16.03.2014 20:00 9,8 C 8,0 C 79 % 1020,1 hPa 0,0 l/m 0,00 h 0,00 h 0,0 UV-I 0 W/m 1,7 km/h (1 Bft)
16.03.2014 21:00 8,7 C 7,0 C 82 % 1020,2 hPa 0,0 l/m 0,00 h 0,00 h 0,0 UV-I 0 W/m 0,4 km/h (0 Bft)
16.03.2014 22:00 8,2 C 6,4 C 85 % 1020,1 hPa 0,0 l/m 0,00 h 0,00 h 0,0 UV-I 0 W/m 0,7 km/h (0 Bft)
16.03.2014 23:00 7,9 C 6,1 C 84 % 1019,8 hPa 0,0 l/m 0,00 h 0,00 h 0,0 UV-I 0 W/m 0,1 km/h (0 Bft)
Min-Datum _ 13.03.14 13.03.14 10.03.14 16.03.14 - - - - - 10.03.14
_ Min-Zeit 06:36 06:06 15:28 04:34 - - - - - 03:04
Minimum _ 1,4 C -0,6 C 43 % 1017,8 hPa - - - - - 0,0 km/h (0 Bft)
Max-Datum _ 10.03.14 10.03.14 14.03.14 12.03.14 15.03.14 10.03.14 15.03.14 16.03.14 16.03.14 15.03.14
_ Max-Zeit 15:22 15:00 06:36 10:44 07:20 08:02 06:26 13:34 13:32 12:56
Maximum _ 18,9 C 17,2 C 97 % 1032,5 hPa 0,4 l/m 0,03 h 0,03 h 2,3 UV-I 761 W/m 41,2 km/h
N-NW (6 Bft)
Durchschnitt _ 9,8 C 8,0 C 77 % 1025,4 hPa #1,0 l/m #47:16 h #1:34 h 0,9 UV-I 242 W/m 6,6 km/h (2 Bft)
© 2014 W. Hausmann